createdAt,value
2022-10-20T00:00:54.806Z,63.23
2022-10-20T00:01:54.791Z,63.23
2022-10-20T00:02:54.798Z,63.23
2022-10-20T00:03:54.746Z,63.23
2022-10-20T00:04:54.736Z,63.23
2022-10-20T00:05:54.749Z,63.23
2022-10-20T00:06:54.716Z,63.23
2022-10-20T00:07:54.704Z,63.23
2022-10-20T00:08:54.757Z,63.23
2022-10-20T00:09:54.682Z,63.23
2022-10-20T00:10:54.722Z,63.23
2022-10-20T00:11:54.663Z,63.23
2022-10-20T00:12:54.647Z,63.23
2022-10-20T00:13:54.639Z,63.23
2022-10-20T00:14:54.627Z,63.23
2022-10-20T00:15:54.663Z,63.23
2022-10-20T00:16:54.604Z,63.23
2022-10-20T00:17:54.620Z,63.23
2022-10-20T00:18:54.583Z,63.13
2022-10-20T00:19:54.574Z,63.23
2022-10-20T00:20:54.585Z,63.13
2022-10-20T00:21:54.552Z,63.13
2022-10-20T00:22:54.540Z,63.13
2022-10-20T00:23:54.531Z,63.13
2022-10-20T00:24:54.518Z,63.13
2022-10-20T00:25:54.549Z,63.13
2022-10-20T00:26:54.497Z,63.13
2022-10-20T00:27:54.486Z,63.13
2022-10-20T00:28:54.474Z,63.13
2022-10-20T00:29:54.466Z,63.13
2022-10-20T00:30:54.454Z,63.13
2022-10-20T00:31:54.470Z,63.13
2022-10-20T00:32:54.431Z,63.13
2022-10-20T00:33:54.453Z,63.13
2022-10-20T00:34:54.410Z,63.13
2022-10-20T00:35:54.403Z,63.13
2022-10-20T00:36:54.414Z,63.13
2022-10-20T00:37:54.377Z,63.13
2022-10-20T00:38:54.365Z,63.13
2022-10-20T00:39:54.356Z,63.13
2022-10-20T00:40:54.343Z,63.13
2022-10-20T00:41:54.375Z,63.13
2022-10-20T00:42:54.324Z,63.13
2022-10-20T00:43:54.314Z,63.13
2022-10-20T00:44:54.306Z,63.13
2022-10-20T00:45:54.292Z,63.03
2022-10-20T00:46:54.279Z,63.13
2022-10-20T00:47:54.297Z,63.13
2022-10-20T00:48:54.256Z,63.13
2022-10-20T00:49:54.274Z,63.03
2022-10-20T00:50:54.235Z,63.13
2022-10-20T00:51:54.225Z,63.03
2022-10-20T00:52:54.241Z,63.03
2022-10-20T00:53:54.204Z,63.13
2022-10-20T00:54:54.191Z,63.03
2022-10-20T00:55:54.181Z,63.13
2022-10-20T00:56:54.220Z,63.03
2022-10-20T00:57:54.182Z,63.03
2022-10-20T00:58:54.148Z,63.03
2022-10-20T00:59:54.136Z,63.03
2022-10-20T01:00:54.125Z,63.03
2022-10-20T01:01:54.194Z,63.03
2022-10-20T01:02:54.168Z,63.03
2022-10-20T01:03:54.099Z,63.03
2022-10-20T01:04:54.083Z,63.03
2022-10-20T01:05:54.098Z,63.03
2022-10-20T01:06:54.060Z,63.03
2022-10-20T01:07:54.053Z,63.03
2022-10-20T01:08:54.177Z,63.03
2022-10-20T01:09:54.030Z,63.03
2022-10-20T01:10:54.016Z,63.03
2022-10-20T01:11:54.006Z,63.03
2022-10-20T01:12:53.994Z,63.03
2022-10-20T01:13:54.009Z,63.03
2022-10-20T01:14:53.972Z,63.03
2022-10-20T01:15:53.968Z,63.03
2022-10-20T01:16:53.950Z,63.03
2022-10-20T01:17:53.946Z,63.03
2022-10-20T01:18:53.968Z,63.03
2022-10-20T01:19:53.921Z,63.03
2022-10-20T01:20:53.906Z,63.03
2022-10-20T01:21:53.919Z,63.03
2022-10-20T01:22:53.884Z,63.03
2022-10-20T01:23:53.875Z,63.03
2022-10-20T01:24:53.888Z,63.03
2022-10-20T01:25:53.855Z,63.03
2022-10-20T01:26:53.841Z,63.03
2022-10-20T01:27:53.831Z,63.03
2022-10-20T01:28:53.819Z,63.03
2022-10-20T01:29:53.848Z,63.03
2022-10-20T01:30:53.798Z,63.03
2022-10-20T01:31:53.794Z,63.03
2022-10-20T01:32:53.775Z,63.03
2022-10-20T01:33:53.765Z,63.03
2022-10-20T01:34:53.753Z,63.03
2022-10-20T01:35:53.768Z,63.03
2022-10-20T01:36:53.732Z,62.93
2022-10-20T01:37:54.167Z,63.03
2022-10-20T01:38:53.710Z,62.93
2022-10-20T01:39:53.703Z,62.93
2022-10-20T01:40:53.717Z,62.93
2022-10-20T01:41:53.679Z,62.93
2022-10-20T01:42:53.671Z,62.93
2022-10-20T01:43:53.657Z,62.93
2022-10-20T01:44:53.645Z,62.93
2022-10-20T01:45:53.675Z,62.93
2022-10-20T01:46:53.624Z,62.93
2022-10-20T01:47:53.616Z,62.93
2022-10-20T01:48:53.602Z,62.93
2022-10-20T01:49:53.595Z,62.93
2022-10-20T01:50:53.582Z,62.93
2022-10-20T01:51:53.600Z,62.93
2022-10-20T01:52:53.562Z,62.93
2022-10-20T01:53:53.573Z,62.93
2022-10-20T01:54:53.535Z,62.93
2022-10-20T01:55:53.527Z,62.93
2022-10-20T01:56:53.539Z,62.93
2022-10-20T01:57:53.506Z,62.93
2022-10-20T01:58:53.492Z,62.93
2022-10-20T01:59:53.481Z,62.93
2022-10-20T02:00:53.505Z,62.93
2022-10-20T02:01:53.597Z,62.93
2022-10-20T02:02:53.451Z,62.93
2022-10-20T02:03:53.442Z,62.93
2022-10-20T02:04:53.425Z,62.93
2022-10-20T02:05:53.415Z,62.93
2022-10-20T02:06:53.698Z,62.93
2022-10-20T02:07:53.396Z,62.93
2022-10-20T02:08:53.407Z,62.93
2022-10-20T02:10:53.360Z,62.93
2022-10-20T02:11:53.349Z,62.93
2022-10-20T02:12:53.362Z,62.93
2022-10-20T02:13:53.329Z,62.93
2022-10-20T02:14:53.347Z,62.93
2022-10-20T02:15:53.308Z,62.93
2022-10-20T02:16:53.292Z,62.93
2022-10-20T02:17:53.311Z,62.93
2022-10-20T02:18:53.321Z,62.93
2022-10-20T02:19:53.264Z,62.93
2022-10-20T02:20:53.248Z,62.93
2022-10-20T02:21:53.240Z,62.93
2022-10-20T02:22:53.252Z,62.93
2022-10-20T02:23:53.216Z,62.93
2022-10-20T02:24:53.215Z,62.93
2022-10-20T02:25:53.217Z,62.93
2022-10-20T02:26:53.182Z,62.93
2022-10-20T02:27:53.240Z,62.93
2022-10-20T02:28:53.160Z,62.93
2022-10-20T02:29:53.148Z,62.93
2022-10-20T02:30:53.137Z,62.93
2022-10-20T02:31:53.126Z,62.93
2022-10-20T02:32:53.142Z,62.93
2022-10-20T02:33:53.104Z,62.93
2022-10-20T02:34:53.094Z,62.93
2022-10-20T02:35:53.084Z,62.93
2022-10-20T02:36:53.071Z,62.93
2022-10-20T02:37:53.087Z,62.83
2022-10-20T02:38:53.047Z,62.93
2022-10-20T02:39:53.037Z,62.83
2022-10-20T02:40:53.027Z,62.93
2022-10-20T02:41:53.040Z,62.93
2022-10-20T02:42:53.028Z,62.83
2022-10-20T02:43:52.994Z,62.83
2022-10-20T02:44:52.981Z,62.83
2022-10-20T02:45:52.976Z,62.93
2022-10-20T02:46:52.962Z,62.83
2022-10-20T02:47:52.977Z,62.83
2022-10-20T02:48:52.943Z,62.83
2022-10-20T02:49:52.929Z,62.83
2022-10-20T02:50:52.918Z,62.83
2022-10-20T02:51:52.910Z,62.83
2022-10-20T02:52:52.920Z,62.93
2022-10-20T02:53:52.886Z,62.83
2022-10-20T02:54:52.874Z,62.83
2022-10-20T02:55:52.862Z,62.83
2022-10-20T02:56:52.851Z,62.83
2022-10-20T02:57:52.905Z,62.83
2022-10-20T02:58:52.831Z,62.83
2022-10-20T02:59:52.820Z,62.83
2022-10-20T03:00:52.808Z,62.83
2022-10-20T03:01:52.894Z,62.83
2022-10-20T03:02:52.789Z,62.83
2022-10-20T03:03:52.814Z,62.83
2022-10-20T03:04:52.767Z,62.83
2022-10-20T03:05:52.753Z,62.83
2022-10-20T03:06:52.742Z,62.83
2022-10-20T03:07:52.730Z,62.83
2022-10-20T03:08:52.830Z,62.83
2022-10-20T03:09:52.735Z,62.83
2022-10-20T03:10:52.699Z,62.83
2022-10-20T03:11:52.688Z,62.83
2022-10-20T03:12:52.678Z,62.83
2022-10-20T03:13:52.691Z,62.83
2022-10-20T03:14:52.675Z,62.83
2022-10-20T03:15:52.644Z,62.83
2022-10-20T03:16:52.655Z,62.83
2022-10-20T03:17:52.622Z,62.83
2022-10-20T03:18:52.610Z,62.83
2022-10-20T03:19:52.605Z,62.83
2022-10-20T03:20:52.591Z,62.83
2022-10-20T03:21:52.598Z,62.83
2022-10-20T03:22:52.601Z,62.83
2022-10-20T03:23:52.558Z,62.83
2022-10-20T03:24:52.546Z,62.83
2022-10-20T03:25:52.535Z,62.83
2022-10-20T03:26:52.523Z,62.83
2022-10-20T03:27:52.512Z,62.83
2022-10-20T03:28:52.523Z,62.83
2022-10-20T03:29:52.533Z,62.83
2022-10-20T03:30:52.484Z,62.83
2022-10-20T03:31:52.483Z,62.83
2022-10-20T03:32:52.457Z,62.83
2022-10-20T03:33:52.445Z,62.83
2022-10-20T03:34:52.457Z,62.83
2022-10-20T03:35:52.426Z,62.83
2022-10-20T03:36:52.432Z,62.83
2022-10-20T03:37:52.401Z,62.83
2022-10-20T03:38:52.394Z,62.83
2022-10-20T03:39:52.379Z,62.83
2022-10-20T03:40:52.426Z,62.83
2022-10-20T03:41:52.387Z,62.83
2022-10-20T03:42:52.350Z,62.83
2022-10-20T03:43:52.336Z,62.83
2022-10-20T03:44:52.347Z,62.83
2022-10-20T03:45:52.340Z,62.83
2022-10-20T03:46:52.311Z,62.83
2022-10-20T03:47:52.295Z,62.83
2022-10-20T03:48:52.286Z,62.83
2022-10-20T03:49:52.330Z,62.83
2022-10-20T03:50:52.286Z,62.83
2022-10-20T03:51:52.249Z,62.83
2022-10-20T03:52:52.244Z,62.83
2022-10-20T03:53:52.231Z,62.83
2022-10-20T03:54:52.221Z,62.83
2022-10-20T03:55:52.228Z,62.83
2022-10-20T03:56:52.217Z,62.83
2022-10-20T03:57:52.185Z,62.83
2022-10-20T03:58:52.242Z,62.83
2022-10-20T03:59:52.165Z,62.73
2022-10-20T04:00:52.152Z,62.83
2022-10-20T04:01:52.235Z,62.83
2022-10-20T04:02:52.135Z,62.73
2022-10-20T04:03:52.120Z,62.83
2022-10-20T04:04:52.111Z,62.73
2022-10-20T04:05:52.098Z,62.73
2022-10-20T04:06:52.110Z,62.73
2022-10-20T04:07:52.078Z,62.73
2022-10-20T04:08:52.144Z,62.83
2022-10-20T04:09:52.055Z,62.83
2022-10-20T04:10:52.046Z,62.83
2022-10-20T04:11:52.035Z,62.83
2022-10-20T04:12:52.024Z,62.73
2022-10-20T04:13:52.031Z,62.73
2022-10-20T04:14:52.016Z,62.73
2022-10-20T04:15:51.990Z,62.73
2022-10-20T04:16:51.982Z,62.73
2022-10-20T04:17:51.993Z,62.73
2022-10-20T04:18:51.983Z,62.73
2022-10-20T04:19:51.947Z,62.73
2022-10-20T04:20:51.937Z,62.73
2022-10-20T04:21:51.924Z,62.73
2022-10-20T04:22:51.917Z,62.73
2022-10-20T04:23:51.924Z,62.73
2022-10-20T04:24:51.895Z,62.73
2022-10-20T04:25:51.916Z,62.73
2022-10-20T04:26:51.875Z,62.73
2022-10-20T04:27:51.862Z,62.73
2022-10-20T04:28:51.851Z,62.73
2022-10-20T04:29:51.839Z,62.73
2022-10-20T04:30:51.828Z,62.73
2022-10-20T04:31:51.837Z,62.73
2022-10-20T04:32:51.806Z,62.73
2022-10-20T04:33:51.817Z,62.73
2022-10-20T04:34:51.785Z,62.73
2022-10-20T04:35:51.774Z,62.73
2022-10-20T04:36:51.782Z,62.73
2022-10-20T04:37:51.769Z,62.73
2022-10-20T04:38:51.739Z,62.73
2022-10-20T04:39:51.728Z,62.73
2022-10-20T04:40:51.719Z,62.73
2022-10-20T04:41:51.708Z,62.73
2022-10-20T04:42:51.715Z,62.73
2022-10-20T04:43:51.708Z,62.73
2022-10-20T04:44:51.717Z,62.73
2022-10-20T04:45:51.660Z,62.73
2022-10-20T04:46:51.657Z,62.73
2022-10-20T04:47:51.638Z,62.73
2022-10-20T04:48:51.648Z,62.73
2022-10-20T04:49:51.662Z,62.73
2022-10-20T04:50:51.609Z,62.73
2022-10-20T04:51:51.596Z,62.73
2022-10-20T04:52:51.587Z,62.73
2022-10-20T04:53:51.659Z,62.73
2022-10-20T04:54:51.616Z,62.73
2022-10-20T04:55:51.554Z,62.73
2022-10-20T04:56:51.541Z,62.73
2022-10-20T04:57:51.529Z,62.73
2022-10-20T04:58:51.520Z,62.73
2022-10-20T04:59:51.508Z,62.73
2022-10-20T05:00:51.520Z,62.73
2022-10-20T05:01:51.524Z,62.73
2022-10-20T05:02:51.477Z,62.73
2022-10-20T05:03:51.467Z,62.73
2022-10-20T05:04:51.458Z,62.73
2022-10-20T05:05:51.486Z,62.73
2022-10-20T05:06:51.453Z,62.73
2022-10-20T05:07:51.421Z,62.73
2022-10-20T05:08:51.593Z,62.73
2022-10-20T05:09:51.402Z,62.73
2022-10-20T05:10:51.390Z,62.73
2022-10-20T05:11:51.400Z,62.73
2022-10-20T05:12:51.370Z,62.73
2022-10-20T05:13:51.357Z,62.73
2022-10-20T05:14:51.347Z,62.73
2022-10-20T05:15:51.335Z,62.73
2022-10-20T05:16:51.327Z,62.73
2022-10-20T05:17:51.332Z,62.73
2022-10-20T05:18:51.301Z,62.73
2022-10-20T05:19:51.290Z,62.73
2022-10-20T05:21:07.971Z,62.73
2022-10-20T05:21:52.293Z,62.73
2022-10-20T05:22:51.282Z,62.73
2022-10-20T05:23:51.248Z,62.73
2022-10-20T05:24:51.241Z,62.73
2022-10-20T05:25:51.227Z,62.73
2022-10-20T05:26:51.216Z,62.73
2022-10-20T05:27:51.232Z,62.73
2022-10-20T05:28:51.195Z,62.73
2022-10-20T05:29:51.186Z,62.73
2022-10-20T05:30:51.197Z,62.73
2022-10-20T05:31:51.164Z,62.73
2022-10-20T05:32:51.151Z,62.73
2022-10-20T05:33:51.168Z,62.73
2022-10-20T05:34:51.132Z,62.73
2022-10-20T05:35:51.121Z,62.73
2022-10-20T05:36:51.146Z,62.73
2022-10-20T05:37:51.125Z,62.73
2022-10-20T05:38:51.088Z,62.73
2022-10-20T05:39:51.080Z,62.73
2022-10-20T05:40:51.068Z,62.73
2022-10-20T05:41:51.055Z,62.73
2022-10-20T05:42:51.071Z,62.73
2022-10-20T05:43:51.034Z,62.73
2022-10-20T05:44:51.062Z,62.73
2022-10-20T05:45:51.012Z,62.73
2022-10-20T05:46:51.004Z,62.73
2022-10-20T05:47:50.990Z,62.73
2022-10-20T05:48:50.982Z,62.73
2022-10-20T05:49:50.971Z,62.73
2022-10-20T05:50:50.981Z,62.73
2022-10-20T05:51:50.971Z,62.73
2022-10-20T05:52:50.938Z,62.73
2022-10-20T05:53:50.949Z,62.73
2022-10-20T05:54:50.918Z,62.73
2022-10-20T05:55:50.904Z,62.73
2022-10-20T05:56:50.915Z,62.73
2022-10-20T05:57:50.885Z,62.73
2022-10-20T05:58:50.874Z,62.73
2022-10-20T05:59:50.865Z,62.73
2022-10-20T06:00:50.858Z,62.73
2022-10-20T06:01:50.864Z,62.73
2022-10-20T06:02:50.832Z,62.73
2022-10-20T06:03:50.821Z,62.73
2022-10-20T06:04:50.829Z,62.73
2022-10-20T06:05:50.799Z,62.73
2022-10-20T06:06:50.791Z,62.73
2022-10-20T06:07:50.796Z,62.73
2022-10-20T06:08:50.892Z,62.73
2022-10-20T06:09:50.778Z,62.73
2022-10-20T06:10:50.780Z,62.73
2022-10-20T06:11:50.733Z,62.73
2022-10-20T06:12:50.722Z,62.73
2022-10-20T06:13:52.916Z,62.73
2022-10-20T06:14:50.706Z,62.73
2022-10-20T06:15:50.691Z,62.73
2022-10-20T06:16:50.699Z,62.73
2022-10-20T06:17:50.670Z,62.73
2022-10-20T06:18:50.683Z,62.73
2022-10-20T06:19:50.649Z,62.73
2022-10-20T06:20:50.636Z,62.73
2022-10-20T06:21:50.636Z,62.73
2022-10-20T06:22:50.615Z,62.73
2022-10-20T06:23:50.623Z,62.73
2022-10-20T06:24:50.592Z,62.63
2022-10-20T06:25:50.608Z,62.63
2022-10-20T06:26:50.591Z,62.63
2022-10-20T06:27:50.563Z,62.63
2022-10-20T06:28:50.559Z,62.63
2022-10-20T06:29:50.543Z,62.63
2022-10-20T06:30:50.550Z,62.63
2022-10-20T06:31:50.518Z,62.63
2022-10-20T06:32:50.555Z,62.63
2022-10-20T06:33:50.499Z,62.63
2022-10-20T06:34:50.486Z,62.63
2022-10-20T06:35:50.476Z,62.73
2022-10-20T06:36:50.463Z,62.73
2022-10-20T06:37:50.454Z,62.73
2022-10-20T06:38:50.475Z,62.73
2022-10-20T06:39:50.439Z,62.73
2022-10-20T06:40:50.420Z,62.73
2022-10-20T06:41:50.443Z,62.73
2022-10-20T06:42:50.451Z,62.83
2022-10-20T06:43:50.390Z,62.83
2022-10-20T06:44:50.399Z,62.83
2022-10-20T06:45:50.372Z,62.83
2022-10-20T06:46:50.355Z,62.83
2022-10-20T06:47:50.347Z,62.83
2022-10-20T06:48:51.569Z,63.03
2022-10-20T06:49:50.372Z,63.03
2022-10-20T06:50:50.326Z,63.13
2022-10-20T06:51:50.319Z,63.13
2022-10-20T06:52:50.292Z,63.13
2022-10-20T06:53:50.285Z,63.13
2022-10-20T06:54:50.274Z,63.03
2022-10-20T06:55:50.281Z,63.03
2022-10-20T06:56:50.251Z,62.93
2022-10-20T06:57:50.281Z,62.93
2022-10-20T06:58:50.228Z,62.93
2022-10-20T06:59:50.219Z,62.93
2022-10-20T07:00:50.207Z,62.93
2022-10-20T07:01:50.293Z,62.93
2022-10-20T07:02:50.185Z,62.93
2022-10-20T07:03:50.175Z,62.83
2022-10-20T07:04:50.163Z,62.93
2022-10-20T07:05:50.155Z,62.93
2022-10-20T07:06:50.168Z,62.83
2022-10-20T07:07:50.152Z,62.93
2022-10-20T07:08:50.237Z,62.93
2022-10-20T07:09:50.129Z,62.93
2022-10-20T07:10:50.099Z,62.93
2022-10-20T07:11:50.087Z,62.93
2022-10-20T07:12:50.076Z,62.93
2022-10-20T07:13:50.093Z,62.93
2022-10-20T07:14:50.075Z,62.93
2022-10-20T07:15:50.045Z,62.93
2022-10-20T07:16:50.033Z,62.93
2022-10-20T07:17:50.022Z,62.93
2022-10-20T07:18:50.021Z,62.93
2022-10-20T07:19:50.024Z,62.93
2022-10-20T07:20:49.993Z,62.93
2022-10-20T07:21:49.982Z,62.93
2022-10-20T07:22:49.972Z,62.93
2022-10-20T07:23:49.959Z,62.93
2022-10-20T07:24:49.973Z,62.93
2022-10-20T07:25:49.936Z,62.93
2022-10-20T07:26:49.954Z,62.93
2022-10-20T07:27:49.915Z,62.93
2022-10-20T07:28:55.381Z,62.93
2022-10-20T07:29:50.916Z,62.93
2022-10-20T07:30:49.884Z,62.93
2022-10-20T07:31:49.894Z,62.93
2022-10-20T07:32:49.865Z,62.93
2022-10-20T07:34:06.770Z,62.93
2022-10-20T07:34:50.841Z,62.93
2022-10-20T07:35:49.830Z,62.93
2022-10-20T07:36:49.854Z,62.93
2022-10-20T07:37:49.811Z,62.93
2022-10-20T07:38:49.799Z,62.93
2022-10-20T07:39:49.786Z,62.93
2022-10-20T07:40:49.778Z,62.93
2022-10-20T07:41:49.769Z,62.93
2022-10-20T07:42:49.792Z,62.93
2022-10-20T07:43:49.743Z,62.93
2022-10-20T07:44:49.756Z,62.93
2022-10-20T07:45:49.838Z,62.93
2022-10-20T07:46:49.717Z,62.93
2022-10-20T07:47:49.720Z,62.93
2022-10-20T07:48:49.691Z,63.03
2022-10-20T07:49:49.679Z,63.03
2022-10-20T07:50:49.669Z,63.03
2022-10-20T07:51:49.669Z,63.03
2022-10-20T07:52:49.674Z,63.03
2022-10-20T07:53:49.636Z,63.03
2022-10-20T07:54:49.627Z,63.03
2022-10-20T07:55:49.614Z,63.03
2022-10-20T07:56:49.628Z,63.03
2022-10-20T07:57:49.615Z,63.03
2022-10-20T07:58:49.607Z,63.03
2022-10-20T07:59:49.573Z,63.03
2022-10-20T08:00:49.560Z,63.03
2022-10-20T08:01:49.709Z,63.03
2022-10-20T08:02:49.560Z,63.33
2022-10-20T08:03:49.530Z,64.14
2022-10-20T08:04:49.520Z,64.24
2022-10-20T08:05:49.508Z,64.04
2022-10-20T08:06:49.499Z,63.93
2022-10-20T08:07:49.507Z,63.84
2022-10-20T08:08:49.541Z,63.73
2022-10-20T08:09:49.469Z,63.73
2022-10-20T08:10:49.455Z,63.73
2022-10-20T08:11:52.817Z,63.73
2022-10-20T08:12:50.460Z,63.64
2022-10-20T08:13:49.420Z,63.64
2022-10-20T08:14:49.423Z,63.64
2022-10-20T08:15:50.356Z,63.64
2022-10-20T08:16:49.467Z,63.53
2022-10-20T08:17:49.402Z,63.43
2022-10-20T08:18:49.406Z,63.43
2022-10-20T08:20:12.819Z,63.33
2022-10-20T08:20:49.351Z,63.33
2022-10-20T08:21:49.336Z,63.33
2022-10-20T08:22:49.328Z,63.33
2022-10-20T08:23:49.341Z,63.23
2022-10-20T08:24:49.325Z,63.23
2022-10-20T08:25:49.297Z,63.23
2022-10-20T08:26:49.298Z,63.23
2022-10-20T08:27:49.347Z,63.23
2022-10-20T08:28:49.259Z,63.23
2022-10-20T08:29:59.896Z,63.23
2022-10-20T08:30:50.266Z,63.33
2022-10-20T08:31:49.230Z,63.33
2022-10-20T08:32:49.219Z,63.33
2022-10-20T08:33:52.561Z,63.33
2022-10-20T08:34:49.196Z,63.33
2022-10-20T08:35:49.209Z,63.33
2022-10-20T08:36:49.196Z,63.33
2022-10-20T08:37:49.166Z,63.33
2022-10-20T08:38:49.157Z,63.33
2022-10-20T08:39:49.144Z,63.33
2022-10-20T08:40:49.132Z,63.43
2022-10-20T08:42:06.997Z,63.43
2022-10-20T08:42:50.108Z,63.43
2022-10-20T08:43:49.101Z,63.43
2022-10-20T08:44:49.090Z,63.43
2022-10-20T08:45:49.079Z,63.43
2022-10-20T08:46:49.093Z,63.43
2022-10-20T08:47:49.056Z,63.43
2022-10-20T08:48:49.045Z,63.43
2022-10-20T08:49:49.064Z,63.43
2022-10-20T08:50:49.039Z,63.33
2022-10-20T08:51:49.048Z,63.43
2022-10-20T08:52:49.030Z,63.33
2022-10-20T08:53:48.990Z,63.33
2022-10-20T08:54:48.982Z,63.33
2022-10-20T08:55:48.970Z,63.33
2022-10-20T08:56:48.961Z,63.33
2022-10-20T08:57:48.973Z,63.33
2022-10-20T08:58:48.937Z,63.33
2022-10-20T08:59:48.950Z,63.33
2022-10-20T09:00:48.927Z,63.33
2022-10-20T09:01:49.051Z,63.33
2022-10-20T09:02:48.915Z,63.33
2022-10-20T09:03:48.888Z,63.33
2022-10-20T09:04:48.879Z,63.33
2022-10-20T09:05:48.885Z,63.33
2022-10-20T09:06:48.852Z,63.33
2022-10-20T09:07:48.886Z,63.43
2022-10-20T09:08:48.881Z,63.43
2022-10-20T09:09:48.824Z,63.33
2022-10-20T09:10:48.829Z,63.33
2022-10-20T09:11:48.808Z,63.33
2022-10-20T09:12:48.786Z,63.33
2022-10-20T09:14:48.785Z,63.43
2022-10-20T09:15:48.760Z,63.43
2022-10-20T09:16:59.821Z,63.43
2022-10-20T09:17:49.732Z,63.43
2022-10-20T09:18:48.722Z,63.43
2022-10-20T09:19:48.737Z,63.43
2022-10-20T09:20:48.701Z,63.43
2022-10-20T09:21:48.715Z,63.43
2022-10-20T09:22:48.678Z,63.43
2022-10-20T09:23:48.756Z,63.43
2022-10-20T09:24:48.656Z,63.43
2022-10-20T09:25:48.647Z,63.43
2022-10-20T09:27:03.971Z,63.43
2022-10-20T09:27:49.625Z,63.43
2022-10-20T09:29:11.765Z,63.43
2022-10-20T09:29:49.603Z,63.43
2022-10-20T09:30:48.612Z,63.43
2022-10-20T09:31:48.585Z,63.43
2022-10-20T09:32:48.796Z,63.43
2022-10-20T09:33:48.573Z,63.43
2022-10-20T09:34:48.549Z,63.43
2022-10-20T09:35:48.540Z,63.43
2022-10-20T09:36:48.528Z,63.43
2022-10-20T09:37:48.561Z,63.43
2022-10-20T09:38:48.505Z,63.43
2022-10-20T09:39:54.187Z,63.43
2022-10-20T09:40:49.483Z,63.43
2022-10-20T09:41:48.476Z,63.43
2022-10-20T09:42:48.481Z,63.43
2022-10-20T09:43:48.477Z,63.43
2022-10-20T09:44:48.441Z,63.43
2022-10-20T09:45:48.431Z,63.43
2022-10-20T09:46:48.419Z,63.43
2022-10-20T09:47:48.411Z,63.43
2022-10-20T09:48:48.445Z,63.43
2022-10-20T09:49:48.391Z,63.53
2022-10-20T09:50:48.377Z,63.43
2022-10-20T09:51:48.480Z,63.43
2022-10-20T09:52:48.355Z,63.43
2022-10-20T09:53:48.399Z,63.43
2022-10-20T09:54:48.333Z,63.43
2022-10-20T09:55:48.323Z,63.43
2022-10-20T09:56:48.312Z,63.43
2022-10-20T09:57:48.301Z,63.53
2022-10-20T09:58:48.318Z,63.53
2022-10-20T09:59:48.317Z,63.53
2022-10-20T10:00:48.303Z,63.53
2022-10-20T10:01:48.259Z,63.53
2022-10-20T10:02:48.249Z,63.53
2022-10-20T10:03:48.241Z,63.53
2022-10-20T10:04:48.224Z,63.53
2022-10-20T10:05:48.239Z,63.53
2022-10-20T10:06:48.204Z,63.53
2022-10-20T10:07:48.193Z,63.53
2022-10-20T10:08:48.224Z,63.53
2022-10-20T10:09:48.199Z,63.53
2022-10-20T10:10:48.187Z,63.53
2022-10-20T10:11:48.152Z,63.53
2022-10-20T10:12:48.140Z,63.53
2022-10-20T10:13:48.131Z,63.53
2022-10-20T10:14:48.118Z,63.53
2022-10-20T10:15:48.132Z,63.64
2022-10-20T10:16:48.094Z,63.64
2022-10-20T10:17:48.105Z,63.64
2022-10-20T10:18:49.295Z,63.64
2022-10-20T10:19:51.379Z,63.64
2022-10-20T10:20:49.050Z,63.64
2022-10-20T10:21:48.045Z,63.64
2022-10-20T10:22:48.065Z,63.64
2022-10-20T10:23:48.044Z,63.64
2022-10-20T10:24:48.008Z,63.64
2022-10-20T10:25:48.031Z,63.64
2022-10-20T10:26:47.985Z,63.73
2022-10-20T10:27:47.976Z,63.64
2022-10-20T10:28:47.985Z,63.64
2022-10-20T10:29:47.957Z,63.64
2022-10-20T10:30:50.089Z,63.64
2022-10-20T10:31:47.939Z,63.64
2022-10-20T10:32:47.919Z,63.73
2022-10-20T10:33:47.909Z,63.73
2022-10-20T10:34:47.934Z,63.73
2022-10-20T10:35:47.887Z,63.73
2022-10-20T10:36:47.876Z,63.73
2022-10-20T10:37:47.867Z,63.73
2022-10-20T10:38:47.854Z,63.73
2022-10-20T10:39:47.846Z,63.73
2022-10-20T10:40:47.867Z,63.73
2022-10-20T10:41:48.005Z,63.73
2022-10-20T10:42:47.812Z,63.73
2022-10-20T10:43:48.832Z,63.73
2022-10-20T10:44:47.791Z,63.73
2022-10-20T10:45:47.779Z,63.73
2022-10-20T10:46:47.774Z,63.73
2022-10-20T10:47:47.756Z,63.73
2022-10-20T10:48:47.770Z,63.73
2022-10-20T10:49:47.735Z,63.73
2022-10-20T10:50:47.747Z,63.73
2022-10-20T10:51:47.711Z,63.73
2022-10-20T10:52:47.701Z,63.93
2022-10-20T10:53:47.689Z,64.24
2022-10-20T10:54:47.702Z,64.24
2022-10-20T10:55:48.991Z,64.24
2022-10-20T10:56:47.676Z,64.24
2022-10-20T10:57:47.670Z,64.24
2022-10-20T10:58:47.633Z,64.14
2022-10-20T10:59:47.623Z,64.04
2022-10-20T11:00:47.705Z,64.04
2022-10-20T11:01:47.625Z,63.93
2022-10-20T11:02:47.612Z,63.93
2022-10-20T11:03:47.583Z,63.93
2022-10-20T11:04:47.568Z,63.93
2022-10-20T11:05:47.560Z,63.93
2022-10-20T11:06:47.546Z,63.93
2022-10-20T11:07:47.560Z,63.93
2022-10-20T11:08:47.617Z,63.93
2022-10-20T11:09:47.525Z,63.84
2022-10-20T11:10:47.505Z,63.93
2022-10-20T11:11:47.495Z,63.93
2022-10-20T11:12:47.481Z,63.93
2022-10-20T11:13:47.497Z,63.93
2022-10-20T11:14:47.486Z,63.93
2022-10-20T11:15:47.453Z,63.93
2022-10-20T11:16:47.478Z,63.93
2022-10-20T11:17:47.427Z,63.93
2022-10-20T11:18:47.415Z,63.93
2022-10-20T11:19:47.406Z,63.93
2022-10-20T11:20:47.393Z,63.84
2022-10-20T11:21:47.385Z,63.84
2022-10-20T11:22:47.391Z,63.84
2022-10-20T11:23:47.360Z,63.93
2022-10-20T11:24:47.349Z,63.93
2022-10-20T11:25:47.338Z,63.93
2022-10-20T11:26:47.354Z,63.93
2022-10-20T11:27:47.319Z,63.93
2022-10-20T11:28:47.307Z,63.93
2022-10-20T11:29:47.319Z,63.93
2022-10-20T11:30:47.284Z,63.93
2022-10-20T11:31:47.296Z,63.93
2022-10-20T11:32:47.263Z,63.93
2022-10-20T11:33:47.251Z,63.93
2022-10-20T11:34:47.240Z,63.93
2022-10-20T11:35:47.227Z,63.93
2022-10-20T11:36:47.218Z,63.93
2022-10-20T11:37:47.233Z,63.93
2022-10-20T11:38:47.197Z,63.93
2022-10-20T11:39:47.205Z,63.93
2022-10-20T11:40:47.173Z,63.93
2022-10-20T11:41:47.163Z,63.93
2022-10-20T11:42:47.153Z,63.93
2022-10-20T11:43:47.139Z,63.93
2022-10-20T11:44:47.149Z,63.93
2022-10-20T11:45:47.160Z,63.93
2022-10-20T11:46:47.108Z,63.93
2022-10-20T11:47:47.099Z,63.93
2022-10-20T11:48:47.087Z,63.93
2022-10-20T11:49:47.074Z,63.93
2022-10-20T11:50:47.087Z,63.93
2022-10-20T11:51:47.075Z,63.93
2022-10-20T11:52:47.042Z,63.93
2022-10-20T11:53:47.031Z,63.93
2022-10-20T11:54:47.024Z,63.93
2022-10-20T11:55:47.010Z,63.93
2022-10-20T11:56:47.019Z,63.93
2022-10-20T11:57:46.990Z,63.93
2022-10-20T11:58:46.976Z,63.93
2022-10-20T11:59:46.966Z,63.93
2022-10-20T12:00:46.955Z,63.93
2022-10-20T12:01:47.050Z,63.93
2022-10-20T12:02:46.935Z,63.93
2022-10-20T12:03:46.922Z,63.93
2022-10-20T12:04:46.931Z,63.93
2022-10-20T12:05:46.902Z,63.93
2022-10-20T12:06:46.892Z,63.93
2022-10-20T12:07:46.893Z,63.93
2022-10-20T12:08:46.917Z,63.93
2022-10-20T12:09:46.882Z,63.93
2022-10-20T12:10:46.913Z,63.93
2022-10-20T12:11:46.837Z,63.93
2022-10-20T12:12:46.823Z,63.93
2022-10-20T12:13:46.816Z,63.93
2022-10-20T12:14:46.828Z,63.93
2022-10-20T12:15:46.849Z,63.93
2022-10-20T12:16:46.780Z,63.93
2022-10-20T12:17:46.791Z,63.93
2022-10-20T12:18:46.759Z,63.93
2022-10-20T12:19:46.751Z,63.93
2022-10-20T12:20:46.806Z,63.93
2022-10-20T12:21:46.761Z,63.93
2022-10-20T12:22:46.721Z,63.93
2022-10-20T12:23:46.706Z,63.93
2022-10-20T12:24:46.696Z,63.93
2022-10-20T12:25:46.687Z,63.93
2022-10-20T12:26:46.724Z,63.93
2022-10-20T12:27:46.663Z,64.04
2022-10-20T12:28:46.651Z,63.93
2022-10-20T12:29:46.642Z,63.93
2022-10-20T12:30:46.629Z,64.04
2022-10-20T12:31:46.656Z,64.14
2022-10-20T12:32:46.614Z,64.24
2022-10-20T12:33:46.621Z,64.34
2022-10-20T12:34:46.587Z,64.24
2022-10-20T12:35:46.575Z,64.24
2022-10-20T12:36:46.564Z,64.24
2022-10-20T12:37:47.128Z,64.24
2022-10-20T12:38:46.541Z,64.43
2022-10-20T12:39:46.535Z,64.43
2022-10-20T12:40:46.621Z,64.43
2022-10-20T12:41:46.511Z,64.43
2022-10-20T12:42:46.532Z,64.34
2022-10-20T12:43:46.488Z,64.34
2022-10-20T12:44:46.478Z,64.24
2022-10-20T12:45:46.514Z,64.24
2022-10-20T12:46:46.457Z,64.24
2022-10-20T12:47:46.443Z,64.24
2022-10-20T12:48:46.437Z,64.24
2022-10-20T12:49:46.457Z,64.24
2022-10-20T12:50:46.433Z,64.24
2022-10-20T12:51:46.400Z,64.64
2022-10-20T12:52:46.386Z,64.64
2022-10-20T12:53:46.399Z,64.64
2022-10-20T12:54:48.732Z,64.54